Time;durP1;ratioP1;P1;durP2;ratioP2;P2;SDS_P1;SDS_P2;PMS_P1;PMS_P2;Temp;Humidity;BMP_temperature;BMP_pressure;BME280_temperature;BME280_humidity;BME280_pressure;Samples;Min_cycle;Max_cycle;Signal;HPM_P1;HPM_P2
2023/04/30 00:00:26;;;;;;;14.90;9.83;;;11.50;94.20;;;;;;5054256;28;20495;-57
2023/04/30 00:02:53;;;;;;;12.00;10.80;;;11.40;94.40;;;;;;5054229;28;20452;-57
2023/04/30 00:05:20;;;;;;;12.17;10.97;;;11.50;94.60;;;;;;5054131;28;20465;-57
2023/04/30 00:07:48;;;;;;;12.97;11.60;;;11.50;94.60;;;;;;5053560;28;20469;-57
2023/04/30 00:10:14;;;;;;;12.53;11.33;;;11.40;94.80;;;;;;5053635;28;20846;-57
2023/04/30 00:12:41;;;;;;;12.50;11.20;;;11.40;95.10;;;;;;5053724;28;20943;-57
2023/04/30 00:15:08;;;;;;;12.67;11.37;;;11.40;95.20;;;;;;5054011;28;20469;-57
2023/04/30 00:17:35;;;;;;;13.27;11.23;;;11.40;95.30;;;;;;5054056;28;20445;-57
2023/04/30 00:20:02;;;;;;;12.73;10.67;;;11.40;95.40;;;;;;5053849;28;20453;-57
2023/04/30 00:22:28;;;;;;;12.40;11.13;;;11.40;95.40;;;;;;5053576;28;20453;-57
2023/04/30 00:24:56;;;;;;;14.00;10.13;;;11.40;95.40;;;;;;5053745;28;20466;-57
2023/04/30 00:27:23;;;;;;;12.77;11.03;;;11.40;95.30;;;;;;5053617;28;20445;-56
2023/04/30 00:29:50;;;;;;;13.13;11.83;;;11.40;95.30;;;;;;5053649;28;20481;-57
2023/04/30 00:32:16;;;;;;;13.20;11.00;;;11.40;95.30;;;;;;5053415;28;20446;-57
2023/04/30 00:34:43;;;;;;;12.57;11.30;;;11.40;95.50;;;;;;5053214;28;20477;-57
2023/04/30 00:37:10;;;;;;;12.93;11.57;;;11.40;95.60;;;;;;5053603;28;20828;-57
2023/04/30 00:39:36;;;;;;;13.30;11.67;;;11.40;95.50;;;;;;5053498;28;20450;-57
2023/04/30 00:42:05;;;;;;;12.60;10.97;;;11.40;95.30;;;;;;5053222;28;20452;-57
2023/04/30 00:44:31;;;;;;;13.03;11.73;;;11.30;95.10;;;;;;5053368;28;20470;-57
2023/04/30 00:46:58;;;;;;;11.87;10.77;;;11.40;95.30;;;;;;5053459;28;20457;-57
2023/04/30 00:49:25;;;;;;;12.10;10.90;;;11.30;95.30;;;;;;5053470;28;20453;-57
2023/04/30 00:51:52;;;;;;;13.67;10.80;;;11.30;95.20;;;;;;5053440;28;20452;-56
2023/04/30 00:54:20;;;;;;;14.33;11.93;;;11.30;95.20;;;;;;5053498;28;20492;-57
2023/04/30 00:56:48;;;;;;;14.37;11.30;;;11.30;95.10;;;;;;5055396;28;20441;-57
2023/04/30 00:59:17;;;;;;;10.67;9.57;;;11.30;95.10;;;;;;5054034;28;20813;-57
2023/04/30 01:01:43;;;;;;;13.10;10.37;;;11.20;95.10;;;;;;5053662;28;20441;-57
2023/04/30 01:04:10;;;;;;;12.70;10.20;;;11.30;95.30;;;;;;5053402;28;20461;-57
2023/04/30 01:06:37;;;;;;;13.33;11.90;;;11.20;95.30;;;;;;5053106;28;20961;-57
2023/04/30 01:09:04;;;;;;;16.40;11.10;;;11.20;95.40;;;;;;5052801;28;20974;-57
2023/04/30 01:11:44;;;;;;;12.90;11.60;;;11.20;95.50;;;;;;5052870;28;20485;-57
2023/04/30 01:14:20;;;;;;;13.20;11.10;;;11.10;95.20;;;;;;5053308;28;20461;-57
2023/04/30 01:16:52;;;;;;;12.73;10.37;;;11.10;95.40;;;;;;5053317;28;20438;-57
2023/04/30 01:19:35;;;;;;;10.83;9.73;;;11.10;94.90;;;;;;5053741;28;20426;-57
2023/04/30 01:22:04;;;;;;;12.37;11.17;;;11.10;94.90;;;;;;5052872;28;20942;-57
2023/04/30 01:24:49;;;;;;;11.07;9.97;;;11.00;94.80;;;;;;5052821;28;20481;-57
2023/04/30 01:27:30;;;;;;;11.00;9.87;;;11.00;94.70;;;;;;5053042;28;20851;-57
2023/04/30 01:29:59;;;;;;;11.57;10.47;;;11.00;94.60;;;;;;5053031;28;20426;-57
2023/04/30 01:32:26;;;;;;;12.47;10.70;;;10.90;94.40;;;;;;5053095;28;20859;-57
2023/04/30 01:34:52;;;;;;;10.80;9.80;;;10.90;94.40;;;;;;5052579;28;20997;-57
2023/04/30 01:37:25;;;;;;;11.60;10.40;;;10.80;94.40;;;;;;5053109;28;20457;-57
2023/04/30 01:40:05;;;;;;;11.67;10.47;;;10.80;94.40;;;;;;5052846;28;20430;-57
2023/04/30 01:42:41;;;;;;;11.23;10.07;;;10.80;94.50;;;;;;5053027;28;20808;-57
2023/04/30 01:45:25;;;;;;;10.67;9.57;;;10.70;94.40;;;;;;5052919;28;20461;-57
2023/04/30 01:48:01;;;;;;;10.50;9.40;;;10.70;94.30;;;;;;5056522;28;20478;-57
2023/04/30 01:50:37;;;;;;;11.33;10.13;;;10.70;94.20;;;;;;5056765;28;20465;-57
2023/04/30 01:53:09;;;;;;;10.23;9.23;;;10.60;94.20;;;;;;5056293;28;20847;-57
2023/04/30 01:55:37;;;;;;;10.70;9.57;;;10.60;94.20;;;;;;5056617;28;20430;-56
2023/04/30 01:58:09;;;;;;;11.73;9.53;;;10.50;94.20;;;;;;5056236;28;20852;-57
2023/04/30 02:00:37;;;;;;;11.73;10.17;;;10.50;94.20;;;;;;5056615;28;20425;-57
2023/04/30 02:03:04;;;;;;;9.53;8.60;;;10.50;94.30;;;;;;5056120;28;20986;-57
2023/04/30 02:05:31;;;;;;;10.20;9.20;;;10.50;94.40;;;;;;5056416;28;20801;-57
2023/04/30 02:07:57;;;;;;;10.53;9.47;;;10.40;94.30;;;;;;5055919;28;20858;-57
2023/04/30 02:10:26;;;;;;;11.60;8.90;;;10.30;94.10;;;;;;5056224;28;20481;-57
2023/04/30 02:12:53;;;;;;;9.60;8.70;;;10.30;94.20;;;;;;5056375;28;20492;-57
2023/04/30 02:15:19;;;;;;;10.00;9.00;;;10.30;94.10;;;;;;5055883;28;20837;-57
2023/04/30 02:17:47;;;;;;;10.60;9.43;;;10.30;94.10;;;;;;5056336;28;20449;-57
2023/04/30 02:20:14;;;;;;;12.20;10.30;;;10.30;94.20;;;;;;5056148;28;20446;-57
2023/04/30 02:22:41;;;;;;;10.30;9.20;;;10.20;94.10;;;;;;5055793;28;20895;-57
2023/04/30 02:25:10;;;;;;;9.63;8.63;;;10.20;94.10;;;;;;5055988;28;20908;-58
2023/04/30 02:27:36;;;;;;;10.93;9.53;;;10.20;94.30;;;;;;5056018;28;20453;-58
2023/04/30 02:30:04;;;;;;;10.70;9.60;;;10.20;94.30;;;;;;5055906;28;20515;-58
2023/04/30 02:32:30;;;;;;;13.40;9.73;;;10.10;94.20;;;;;;5055604;28;20489;-58
2023/04/30 02:34:59;;;;;;;10.53;9.50;;;10.10;94.30;;;;;;5055824;28;20477;-58
2023/04/30 02:37:25;;;;;;;11.53;10.10;;;10.10;94.30;;;;;;5055594;28;20520;-58
2023/04/30 02:39:52;;;;;;;11.67;10.47;;;10.10;94.20;;;;;;5055522;28;21001;-58
2023/04/30 02:42:19;;;;;;;12.33;10.40;;;10.00;94.30;;;;;;5055803;28;20454;-58
2023/04/30 02:44:46;;;;;;;10.97;9.40;;;10.00;94.20;;;;;;5055298;28;20983;-58
2023/04/30 02:47:13;;;;;;;14.43;11.00;;;10.00;94.30;;;;;;5055684;28;20454;-58
2023/04/30 02:49:39;;;;;;;12.43;10.83;;;10.00;94.30;;;;;;5055643;28;20507;-58
2023/04/30 02:52:08;;;;;;;10.40;9.37;;;10.00;94.20;;;;;;5055492;28;20516;-58
2023/04/30 02:54:35;;;;;;;11.23;10.10;;;10.00;94.30;;;;;;5055410;28;20469;-57
2023/04/30 02:57:02;;;;;;;12.17;10.90;;;9.90;94.90;;;;;;5055362;28;20453;-58
2023/04/30 02:59:29;;;;;;;12.40;10.73;;;9.90;94.90;;;;;;5055029;28;20959;-57
2023/04/30 03:01:55;;;;;;;13.57;11.07;;;9.90;95.00;;;;;;5055086;28;20446;-58
2023/04/30 03:04:22;;;;;;;11.20;10.10;;;9.90;95.00;;;;;;5054972;28;20473;-57
2023/04/30 03:06:49;;;;;;;12.10;10.80;;;9.90;95.10;;;;;;5054996;28;20958;-58
2023/04/30 03:09:17;;;;;;;12.83;11.03;;;9.90;95.20;;;;;;5054845;28;20504;-58
2023/04/30 03:11:44;;;;;;;12.67;11.37;;;9.90;95.30;;;;;;5055096;28;20523;-58
2023/04/30 03:14:11;;;;;;;11.33;9.57;;;9.90;95.40;;;;;;5054931;28;20842;-57
2023/04/30 03:16:37;;;;;;;14.10;11.07;;;9.90;95.40;;;;;;5054887;28;20965;-58
2023/04/30 03:19:04;;;;;;;12.73;10.90;;;9.90;95.50;;;;;;5055210;28;20457;-57
2023/04/30 03:21:31;;;;;;;11.97;10.73;;;9.90;95.60;;;;;;5055154;28;20520;-57
2023/04/30 03:23:58;;;;;;;12.00;10.70;;;9.80;95.60;;;;;;5054697;28;20470;-56
2023/04/30 03:26:26;;;;;;;13.50;12.10;;;9.80;95.50;;;;;;5054548;28;20833;-57
2023/04/30 03:28:54;;;;;;;12.20;10.93;;;9.80;95.50;;;;;;5054865;28;20460;-57
2023/04/30 03:31:20;;;;;;;14.03;11.53;;;9.80;95.40;;;;;;5054776;28;20489;-57
2023/04/30 03:33:47;;;;;;;12.47;11.17;;;9.80;95.20;;;;;;5054903;28;20474;-57
2023/04/30 03:36:13;;;;;;;14.47;10.60;;;9.80;95.20;;;;;;5055866;28;20449;-57
2023/04/30 03:38:41;;;;;;;14.67;10.80;;;9.80;95.30;;;;;;5056258;28;20460;-57
2023/04/30 03:41:08;;;;;;;13.83;11.53;;;9.70;95.30;;;;;;5055852;28;20449;-57
2023/04/30 03:43:36;;;;;;;11.30;10.20;;;9.70;95.30;;;;;;5054941;28;20519;-57
2023/04/30 03:46:03;;;;;;;9.93;8.93;;;9.70;95.30;;;;;;5055281;28;20449;-57
2023/04/30 03:48:30;;;;;;;10.67;9.53;;;9.70;95.10;;;;;;5055574;28;20950;-57
2023/04/30 03:50:56;;;;;;;9.67;8.63;;;9.60;94.80;;;;;;5056167;28;20485;-57
2023/04/30 03:53:24;;;;;;;9.90;8.90;;;9.60;94.70;;;;;;5055165;28;20994;-57
2023/04/30 03:55:51;;;;;;;12.00;10.10;;;9.50;94.70;;;;;;5055086;28;20481;-57
2023/04/30 03:58:18;;;;;;;20.60;10.73;;;9.50;94.90;;;;;;5054680;28;20449;-57
2023/04/30 04:00:47;;;;;;;11.00;9.90;;;9.50;95.20;;;;;;5054318;28;20522;-57
2023/04/30 04:03:13;;;;;;;11.80;10.60;;;9.40;95.10;;;;;;5053944;28;20449;-57
2023/04/30 04:05:40;;;;;;;12.73;10.13;;;9.40;95.10;;;;;;5054229;28;20499;-57
2023/04/30 04:08:07;;;;;;;10.80;9.80;;;9.40;95.10;;;;;;5053443;28;20544;-57
2023/04/30 04:10:34;;;;;;;12.40;10.80;;;9.40;95.30;;;;;;5054177;28;20947;-57
2023/04/30 04:13:01;;;;;;;11.37;10.27;;;9.40;95.40;;;;;;5053935;28;20488;-57
2023/04/30 04:15:28;;;;;;;14.50;12.00;;;9.40;95.50;;;;;;5053979;28;20450;-57
2023/04/30 04:17:56;;;;;;;12.13;10.47;;;9.40;95.60;;;;;;5054021;28;20449;-57
2023/04/30 04:20:22;;;;;;;18.37;11.90;;;9.40;95.70;;;;;;5053911;28;20457;-57
2023/04/30 04:22:49;;;;;;;15.23;12.13;;;9.40;95.80;;;;;;5053890;28;20495;-57
2023/04/30 04:25:16;;;;;;;12.63;11.33;;;9.40;95.90;;;;;;5053789;28;20473;-57
2023/04/30 04:27:43;;;;;;;15.00;12.97;;;9.40;96.10;;;;;;5053861;28;20542;-57
2023/04/30 04:30:11;;;;;;;20.30;14.00;;;9.50;96.40;;;;;;5053549;28;20452;-57
2023/04/30 04:32:45;;;;;;;21.07;13.80;;;9.50;96.50;;;;;;5053704;28;20659;-57
2023/04/30 04:35:13;;;;;;;14.33;12.83;;;9.50;96.60;;;;;;5053536;28;20473;-57
2023/04/30 04:37:41;;;;;;;17.33;12.80;;;9.50;96.70;;;;;;5053804;28;20449;-57
2023/04/30 04:40:09;;;;;;;13.80;11.70;;;9.50;96.80;;;;;;5053641;28;20472;-57
2023/04/30 04:42:37;;;;;;;12.17;10.97;;;9.50;96.70;;;;;;5053519;28;20484;-57
2023/04/30 04:45:05;;;;;;;11.87;10.63;;;9.50;96.50;;;;;;5053481;28;20538;-57
2023/04/30 04:47:31;;;;;;;11.43;10.30;;;9.50;96.20;;;;;;5053508;28;20571;-58
2023/04/30 04:49:58;;;;;;;10.10;9.10;;;9.50;96.00;;;;;;5053444;28;20449;-58
2023/04/30 04:52:26;;;;;;;10.80;9.50;;;9.40;95.80;;;;;;5052929;28;21071;-57
2023/04/30 04:54:53;;;;;;;10.83;8.93;;;9.30;95.60;;;;;;5053066;28;20979;-57
2023/04/30 04:57:19;;;;;;;11.43;9.20;;;9.30;95.60;;;;;;5053003;28;20448;-58
2023/04/30 04:59:46;;;;;;;10.60;9.47;;;9.20;95.50;;;;;;5053307;28;20837;-57
2023/04/30 05:02:13;;;;;;;9.40;8.40;;;9.10;95.30;;;;;;5053310;28;20453;-58
2023/04/30 05:04:40;;;;;;;9.93;8.93;;;9.10;95.80;;;;;;5053214;28;20495;-57
2023/04/30 05:07:07;;;;;;;12.80;9.93;;;9.10;96.00;;;;;;5053339;28;20460;-57
2023/04/30 05:09:35;;;;;;;11.77;10.60;;;9.10;96.10;;;;;;5052874;28;20498;-58
2023/04/30 05:12:02;;;;;;;13.03;10.70;;;9.20;96.60;;;;;;5053066;28;20481;-58
2023/04/30 05:14:28;;;;;;;11.73;10.57;;;9.10;96.60;;;;;;5052843;28;20458;-58
2023/04/30 05:16:55;;;;;;;11.97;10.80;;;9.10;96.80;;;;;;5053160;28;20481;-58
2023/04/30 05:19:22;;;;;;;11.50;10.43;;;9.20;97.10;;;;;;5053116;28;20457;-58
2023/04/30 05:21:48;;;;;;;11.77;10.60;;;9.30;97.30;;;;;;5055932;28;20449;-58
2023/04/30 05:24:15;;;;;;;13.33;10.90;;;9.30;97.60;;;;;;5057258;28;20492;-58
2023/04/30 05:26:43;;;;;;;13.97;12.57;;;9.30;97.80;;;;;;5057158;28;20456;-58
2023/04/30 05:29:10;;;;;;;14.77;12.80;;;9.30;98.00;;;;;;5057077;28;20445;-58
2023/04/30 05:31:37;;;;;;;15.40;13.80;;;9.40;98.40;;;;;;5056916;28;20508;-58
2023/04/30 05:34:04;;;;;;;15.40;13.03;;;9.50;98.70;;;;;;5056985;28;20478;-58
2023/04/30 05:36:31;;;;;;;18.07;15.30;;;9.50;98.90;;;;;;5057090;28;20457;-58
2023/04/30 05:38:58;;;;;;;16.97;13.80;;;9.60;99.10;;;;;;5056974;28;20481;-58
2023/04/30 05:41:25;;;;;;;18.53;14.67;;;9.70;99.40;;;;;;5056598;28;20437;-58
2023/04/30 05:43:53;;;;;;;17.67;15.47;;;9.70;99.50;;;;;;5056777;28;20903;-58
2023/04/30 05:46:20;;;;;;;17.60;15.30;;;9.80;99.80;;;;;;5056824;28;20450;-58
2023/04/30 05:48:47;;;;;;;18.77;15.30;;;9.90;99.90;;;;;;5056834;28;20458;-58
2023/04/30 05:51:13;;;;;;;15.47;13.87;;;10.00;99.60;;;;;;5056736;28;20452;-58
2023/04/30 05:53:40;;;;;;;16.00;14.30;;;10.00;99.70;;;;;;5056666;28;20473;-58
2023/04/30 05:56:07;;;;;;;17.23;15.33;;;10.10;99.80;;;;;;5056714;28;20449;-58
2023/04/30 05:58:34;;;;;;;19.97;15.43;;;10.20;99.90;;;;;;5056651;28;20461;-58
2023/04/30 06:01:02;;;;;;;20.37;15.10;;;10.20;99.90;;;;;;5056597;28;20442;-58
2023/04/30 06:03:29;;;;;;;16.00;14.40;;;10.30;99.90;;;;;;5056477;28;20462;-58
2023/04/30 06:05:55;;;;;;;16.33;14.63;;;10.40;99.90;;;;;;5056620;28;20457;-58
2023/04/30 06:08:22;;;;;;;15.03;13.53;;;10.50;99.90;;;;;;5056147;28;20515;-58
2023/04/30 06:10:50;;;;;;;16.33;14.10;;;10.50;99.90;;;;;;5056483;28;20457;-58
2023/04/30 06:13:17;;;;;;;17.03;15.27;;;10.60;99.90;;;;;;5056186;28;20484;-58
2023/04/30 06:15:44;;;;;;;17.90;16.03;;;10.70;99.90;;;;;;5056081;28;20453;-58
2023/04/30 06:18:13;;;;;;;21.27;16.90;;;10.80;99.90;;;;;;5056198;28;20503;-58
2023/04/30 06:20:39;;;;;;;19.40;15.67;;;10.90;99.90;;;;;;5056250;28;20505;-58
2023/04/30 06:23:06;;;;;;;15.97;14.27;;;11.00;99.90;;;;;;5056267;28;20450;-57
2023/04/30 06:25:33;;;;;;;16.93;15.13;;;11.10;99.90;;;;;;5056374;28;20454;-58
2023/04/30 06:28:00;;;;;;;19.17;15.57;;;11.20;99.70;;;;;;5056205;28;20444;-58
2023/04/30 06:30:27;;;;;;;20.47;16.60;;;11.30;99.60;;;;;;5056828;28;20444;-58
2023/04/30 06:32:54;;;;;;;16.73;13.77;;;11.30;99.50;;;;;;5055214;28;20480;-58
2023/04/30 06:35:22;;;;;;;19.37;15.23;;;11.50;99.60;;;;;;5055831;28;20469;-57
2023/04/30 06:37:49;;;;;;;21.20;16.40;;;11.60;99.50;;;;;;5055662;28;20965;-58
2023/04/30 06:40:15;;;;;;;18.97;17.03;;;11.70;99.40;;;;;;5057691;28;20480;-58
2023/04/30 06:42:42;;;;;;;20.53;16.10;;;11.80;99.30;;;;;;5058565;28;20449;-58
2023/04/30 06:45:11;;;;;;;19.60;15.10;;;11.80;99.20;;;;;;5057723;28;20527;-58
2023/04/30 06:47:37;;;;;;;16.27;14.60;;;12.00;99.10;;;;;;5056787;28;20959;-58
2023/04/30 06:50:06;;;;;;;16.30;14.43;;;12.10;99.40;;;;;;5055988;28;20453;-58
2023/04/30 06:52:33;;;;;;;16.03;14.33;;;12.20;98.90;;;;;;5055566;28;20488;-58
2023/04/30 06:55:00;;;;;;;15.13;13.63;;;12.30;98.40;;;;;;5055574;28;20469;-58
2023/04/30 06:57:27;;;;;;;16.73;15.03;;;12.40;98.10;;;;;;5055234;28;20943;-58
2023/04/30 06:59:55;;;;;;;16.53;14.83;;;12.60;97.90;;;;;;5055622;28;20449;-58
2023/04/30 07:02:22;;;;;;;16.47;14.70;;;12.70;97.60;;;;;;5055553;28;20452;-58
2023/04/30 07:04:49;;;;;;;16.77;14.50;;;12.90;97.60;;;;;;5055352;28;20536;-57
2023/04/30 07:07:15;;;;;;;16.30;14.60;;;13.00;97.40;;;;;;5055348;28;20477;-58
2023/04/30 07:09:43;;;;;;;18.33;15.23;;;13.10;97.00;;;;;;5055054;28;20944;-58
2023/04/30 07:12:12;;;;;;;18.77;14.77;;;13.30;96.80;;;;;;5055242;28;20481;-58
2023/04/30 07:14:39;;;;;;;15.13;13.63;;;13.40;96.20;;;;;;5055095;28;20480;-58
2023/04/30 07:17:05;;;;;;;15.60;14.00;;;13.60;95.80;;;;;;5055151;28;20474;-58
2023/04/30 07:19:32;;;;;;;17.37;14.80;;;13.70;95.50;;;;;;5055188;28;20483;-57
2023/04/30 07:21:59;;;;;;;14.67;12.50;;;13.90;95.20;;;;;;5055037;28;20446;-58
2023/04/30 07:24:26;;;;;;;16.53;14.67;;;14.10;94.80;;;;;;5055109;28;20554;-58
2023/04/30 07:26:54;;;;;;;14.73;13.23;;;14.20;94.40;;;;;;5054723;28;20958;-58
2023/04/30 07:29:22;;;;;;;15.63;13.57;;;14.40;94.30;;;;;;5054899;28;20449;-58
2023/04/30 07:31:48;;;;;;;14.73;11.63;;;14.60;93.90;;;;;;5054889;28;20484;-58
2023/04/30 07:34:15;;;;;;;13.60;12.20;;;14.80;93.60;;;;;;5054850;28;20478;-58
2023/04/30 07:36:42;;;;;;;13.17;11.97;;;14.90;93.00;;;;;;5054887;28;20457;-57
2023/04/30 07:39:10;;;;;;;12.93;10.83;;;15.20;92.60;;;;;;5054696;28;20872;-58
2023/04/30 07:41:37;;;;;;;12.57;11.37;;;15.30;92.20;;;;;;5054643;28;20457;-58
2023/04/30 07:44:05;;;;;;;12.37;11.20;;;15.50;91.60;;;;;;5053308;28;20981;-58
2023/04/30 07:46:32;;;;;;;13.20;12.00;;;15.70;91.40;;;;;;5054630;28;20460;-58
2023/04/30 07:48:59;;;;;;;12.17;11.00;;;15.90;91.20;;;;;;5054248;28;20828;-58
2023/04/30 07:51:26;;;;;;;14.77;13.27;;;16.10;90.60;;;;;;5054494;28;20456;-58
2023/04/30 07:53:53;;;;;;;13.60;12.30;;;16.30;89.70;;;;;;5054288;28;20572;-58
2023/04/30 07:56:20;;;;;;;13.53;12.20;;;16.50;88.60;;;;;;5054473;28;20518;-58
2023/04/30 07:58:47;;;;;;;16.17;14.47;;;16.70;87.90;;;;;;5054301;28;20459;-58
2023/04/30 08:01:15;;;;;;;14.50;13.00;;;16.80;87.60;;;;;;5053932;28;20974;-58
2023/04/30 08:03:42;;;;;;;13.90;12.50;;;17.00;87.20;;;;;;5054707;28;20466;-58
2023/04/30 08:06:08;;;;;;;13.43;12.13;;;17.30;86.60;;;;;;5053834;28;20911;-58
2023/04/30 08:08:35;;;;;;;14.33;13.03;;;17.50;85.30;;;;;;5054017;28;20464;-58
2023/04/30 08:11:02;;;;;;;13.70;12.30;;;17.70;85.10;;;;;;5054380;28;20943;-58
2023/04/30 08:13:29;;;;;;;14.20;11.37;;;17.90;84.60;;;;;;5053927;28;20489;-58
2023/04/30 08:15:56;;;;;;;15.13;13.60;;;18.10;84.10;;;;;;5054041;28;20481;-58
2023/04/30 08:18:24;;;;;;;15.37;11.73;;;18.40;82.50;;;;;;5053683;28;20951;-58
2023/04/30 08:20:51;;;;;;;14.53;13.23;;;18.50;80.00;;;;;;5053982;28;20446;-58
2023/04/30 08:23:17;;;;;;;13.47;12.17;;;18.70;80.10;;;;;;5053516;28;20446;-58
2023/04/30 08:25:44;;;;;;;13.13;10.83;;;18.80;80.20;;;;;;5053858;28;20453;-58
2023/04/30 08:28:11;;;;;;;13.17;11.80;;;19.00;79.00;;;;;;5053747;28;20460;-58
2023/04/30 08:30:38;;;;;;;12.43;11.20;;;19.20;77.10;;;;;;5053790;28;20453;-58
2023/04/30 08:33:05;;;;;;;10.37;9.47;;;19.40;77.60;;;;;;5053562;28;20478;-58
2023/04/30 08:35:33;;;;;;;16.60;11.03;;;19.60;76.40;;;;;;5053614;28;20530;-58
2023/04/30 08:38:00;;;;;;;10.83;9.73;;;19.90;74.50;;;;;;5053763;28;20460;-58
2023/04/30 08:40:27;;;;;;;12.97;11.67;;;20.20;73.10;;;;;;5053573;28;20453;-58
2023/04/30 08:43:01;;;;;;;13.73;10.20;;;20.40;72.40;;;;;;5053033;28;20831;-57
2023/04/30 08:45:28;;;;;;;12.03;10.70;;;20.60;70.40;;;;;;5053512;28;20434;-58
2023/04/30 08:47:58;;;;;;;11.80;10.70;;;20.80;67.70;;;;;;5054277;28;20452;-58
2023/04/30 08:50:25;;;;;;;9.70;8.80;;;21.00;67.70;;;;;;5053143;28;20951;-58
2023/04/30 08:52:53;;;;;;;11.83;10.83;;;21.20;67.00;;;;;;5053136;28;20490;-57
2023/04/30 08:55:20;;;;;;;12.33;11.23;;;21.40;66.30;;;;;;5053058;28;20469;-58
2023/04/30 08:57:46;;;;;;;10.67;9.30;;;21.60;64.10;;;;;;5053363;28;20454;-58
2023/04/30 09:00:14;;;;;;;12.17;11.07;;;21.70;63.90;;;;;;5053305;28;20458;-58
2023/04/30 09:02:41;;;;;;;10.23;9.33;;;21.90;62.80;;;;;;5053385;28;20445;-58
2023/04/30 09:05:11;;;;;;;10.63;9.43;;;22.00;62.90;;;;;;5053205;28;20544;-58
2023/04/30 09:07:41;;;;;;;10.43;9.37;;;22.20;62.10;;;;;;5053091;28;20473;-58
2023/04/30 09:10:18;;;;;;;8.73;7.97;;;22.40;60.40;;;;;;5053212;28;20492;-57
2023/04/30 09:12:57;;;;;;;9.37;8.50;;;22.60;59.20;;;;;;5053130;28;20878;-58
2023/04/30 09:15:24;;;;;;;12.53;9.43;;;22.80;58.50;;;;;;5053216;28;20473;-58
2023/04/30 09:17:51;;;;;;;8.47;7.77;;;23.10;57.70;;;;;;5053116;28;20456;-58
2023/04/30 09:20:17;;;;;;;6.63;5.87;;;23.30;57.10;;;;;;5053229;28;20453;-58
2023/04/30 09:22:44;;;;;;;7.30;6.70;;;23.50;55.70;;;;;;5053308;28;20815;-59
2023/04/30 09:25:11;;;;;;;10.77;6.53;;;23.70;54.50;;;;;;5053648;28;20481;-58
2023/04/30 09:27:39;;;;;;;5.63;5.00;;;23.90;53.50;;;;;;5054218;28;20811;-58
2023/04/30 09:30:07;;;;;;;7.50;4.93;;;24.10;52.60;;;;;;5054608;28;20498;-58
2023/04/30 09:32:34;;;;;;;6.43;4.77;;;24.30;51.50;;;;;;5054290;28;20488;-58
2023/04/30 09:35:01;;;;;;;5.40;4.17;;;24.50;51.00;;;;;;5053315;28;20472;-58
2023/04/30 09:37:36;;;;;;;6.10;4.97;;;24.70;50.30;;;;;;5053253;28;20449;-58
2023/04/30 09:40:03;;;;;;;5.57;4.97;;;24.90;48.60;;;;;;5052859;28;20817;-58
2023/04/30 09:42:30;;;;;;;6.83;5.80;;;25.00;47.50;;;;;;5052954;28;20449;-58
2023/04/30 09:44:58;;;;;;;5.33;4.83;;;25.10;47.50;;;;;;5052884;28;20474;-58
2023/04/30 09:47:31;;;;;;;5.93;4.87;;;25.30;47.80;;;;;;5053720;28;20452;-58
2023/04/30 09:50:00;;;;;;;5.73;5.20;;;25.50;47.30;;;;;;5053155;28;20469;-59
2023/04/30 09:52:26;;;;;;;4.10;3.80;;;25.70;46.70;;;;;;5052884;28;20449;-58
2023/04/30 09:54:53;;;;;;;4.37;3.93;;;26.00;46.10;;;;;;5052455;28;20990;-57
2023/04/30 09:57:22;;;;;;;7.83;3.70;;;26.30;45.80;;;;;;5052757;28;20456;-57
2023/04/30 09:59:52;;;;;;;5.83;4.10;;;26.60;44.80;;;;;;5052893;28;20449;-58
2023/04/30 10:02:22;;;;;;;5.13;3.70;;;26.90;43.60;;;;;;5052727;28;20476;-59
2023/04/30 10:04:53;;;;;;;7.90;3.97;;;27.20;42.30;;;;;;5053250;28;20805;-59
2023/04/30 10:07:21;;;;;;;5.17;3.50;;;27.50;42.00;;;;;;5054470;28;20434;-58
2023/04/30 10:09:50;;;;;;;5.13;4.73;;;27.80;41.40;;;;;;5056465;28;20436;-58
2023/04/30 10:12:24;;;;;;;4.17;3.87;;;28.10;38.00;;;;;;5056388;28;20473;-58
2023/04/30 10:14:57;;;;;;;4.43;4.03;;;28.30;38.30;;;;;;5056279;28;20457;-58
2023/04/30 10:17:27;;;;;;;4.50;4.10;;;28.70;37.90;;;;;;5056238;28;20440;-58
2023/04/30 10:20:01;;;;;;;4.40;4.00;;;29.00;37.20;;;;;;5056374;28;20428;-58
2023/04/30 10:22:30;;;;;;;3.97;3.67;;;29.40;36.70;;;;;;5056932;28;20878;-58
2023/04/30 10:24:56;;;;;;;4.17;3.87;;;29.80;36.10;;;;;;5056203;28;20465;-58
2023/04/30 10:27:23;;;;;;;8.73;4.13;;;30.30;35.00;;;;;;5055914;28;20445;-58
2023/04/30 10:29:51;;;;;;;6.10;3.40;;;30.70;33.10;;;;;;5056052;28;20460;-59
2023/04/30 10:32:19;;;;;;;5.83;3.97;;;31.00;32.50;;;;;;5056774;28;20820;-57
2023/04/30 10:34:54;;;;;;;5.70;4.50;;;31.10;32.60;;;;;;5055889;28;20485;-57
2023/04/30 10:37:28;;;;;;;4.17;3.87;;;31.10;32.20;;;;;;5055682;28;20439;-57
2023/04/30 10:39:55;;;;;;;4.20;3.90;;;31.20;32.20;;;;;;5055950;28;20430;-56
2023/04/30 10:42:22;;;;;;;3.90;3.60;;;31.50;31.50;;;;;;5056017;28;20452;-57
2023/04/30 10:44:49;;;;;;;3.80;3.37;;;32.00;30.30;;;;;;5055799;28;20506;-57
2023/04/30 10:47:18;;;;;;;4.20;3.00;;;32.30;30.00;;;;;;5055842;28;20457;-57
2023/04/30 10:49:48;;;;;;;3.70;3.30;;;32.30;28.60;;;;;;5055289;28;20955;-57
2023/04/30 10:52:14;;;;;;;3.07;2.87;;;32.20;28.70;;;;;;5055640;28;20494;-57
2023/04/30 10:54:50;;;;;;;3.37;2.90;;;31.70;29.00;;;;;;5055391;28;20855;-57
2023/04/30 10:57:18;;;;;;;2.57;2.37;;;31.10;30.00;;;;;;5055553;28;20441;-57
2023/04/30 10:59:52;;;;;;;2.80;2.50;;;31.10;30.00;;;;;;5055652;28;20502;-57
2023/04/30 11:02:20;;;;;;;2.37;2.13;;;31.40;30.20;;;;;;5055574;28;20436;-57
2023/04/30 11:05:10;;;;;;;2.67;2.43;;;31.70;30.00;;;;;;5055584;28;20546;-57
2023/04/30 11:07:37;;;;;;;3.57;2.83;;;32.10;29.30;;;;;;5055087;28;20833;-57
2023/04/30 11:10:08;;;;;;;2.70;2.50;;;32.60;28.60;;;;;;5055449;28;20532;-57
2023/04/30 11:12:35;;;;;;;3.63;2.60;;;32.70;28.10;;;;;;5055420;28;20930;-57
2023/04/30 11:15:06;;;;;;;3.10;2.80;;;33.10;28.20;;;;;;5055164;28;20488;-57
2023/04/30 11:17:34;;;;;;;3.03;2.83;;;33.30;27.90;;;;;;5055193;28;20437;-57
2023/04/30 11:20:01;;;;;;;2.93;2.73;;;33.10;27.80;;;;;;5054859;28;20445;-58
2023/04/30 11:22:34;;;;;;;2.93;2.73;;;32.70;28.40;;;;;;5055152;28;20441;-57
2023/04/30 11:25:04;;;;;;;2.10;2.00;;;32.20;28.50;;;;;;5055012;28;20471;-57
2023/04/30 11:27:32;;;;;;;2.80;2.60;;;31.80;29.10;;;;;;5055114;28;20452;-57
2023/04/30 11:30:00;;;;;;;3.20;2.90;;;31.80;29.60;;;;;;5055124;28;20449;-57
2023/04/30 11:32:36;;;;;;;3.60;3.20;;;31.80;28.70;;;;;;5054921;28;20455;-57
2023/04/30 11:35:04;;;;;;;3.03;2.83;;;31.30;29.60;;;;;;5054813;28;20492;-57
2023/04/30 11:37:35;;;;;;;3.50;3.20;;;31.10;30.10;;;;;;5054433;28;20502;-57
2023/04/30 11:40:04;;;;;;;2.57;2.37;;;30.90;29.60;;;;;;5054657;28;20429;-56
2023/04/30 11:42:33;;;;;;;3.23;2.90;;;30.60;30.40;;;;;;5054661;28;20481;-57
2023/04/30 11:45:08;;;;;;;3.20;2.90;;;30.20;30.90;;;;;;5054243;28;20851;-57
2023/04/30 11:47:42;;;;;;;2.50;2.30;;;30.50;31.40;;;;;;5054776;28;20481;-57
2023/04/30 11:50:10;;;;;;;2.60;2.47;;;30.80;30.60;;;;;;5054710;28;20452;-57
2023/04/30 11:52:39;;;;;;;3.57;2.67;;;31.60;30.00;;;;;;5054511;28;20551;-57
2023/04/30 11:55:08;;;;;;;3.27;2.37;;;32.30;29.50;;;;;;5054413;28;20485;-57
2023/04/30 11:57:39;;;;;;;5.10;3.30;;;32.80;28.00;;;;;;5056683;28;20449;-58
2023/04/30 12:00:12;;;;;;;4.27;3.90;;;33.40;27.70;;;;;;5074192;28;20432;-56
2023/04/30 12:02:39;;;;;;;3.27;2.93;;;33.90;26.70;;;;;;5074440;28;20452;-56
2023/04/30 12:05:12;;;;;;;5.40;2.70;;;33.80;27.10;;;;;;5074451;28;20468;-57
2023/04/30 12:07:45;;;;;;;3.53;2.90;;;33.20;27.30;;;;;;5074498;28;20495;-57
2023/04/30 12:10:12;;;;;;;2.97;2.77;;;32.30;27.50;;;;;;5075908;28;20447;-55
2023/04/30 12:12:39;;;;;;;1.90;1.80;;;31.60;28.80;;;;;;5075463;28;20937;-57
2023/04/30 12:15:16;;;;;;;2.60;2.40;;;31.10;29.90;;;;;;5075184;28;20488;-57
2023/04/30 12:17:43;;;;;;;1.80;1.70;;;31.00;30.10;;;;;;5074395;28;20428;-57
2023/04/30 12:20:13;;;;;;;2.07;1.97;;;31.60;29.20;;;;;;5073982;28;20451;-57
2023/04/30 12:22:42;;;;;;;1.50;1.40;;;31.90;28.70;;;;;;5074097;28;20451;-57
2023/04/30 12:25:12;;;;;;;1.70;1.60;;;32.10;28.70;;;;;;5074103;28;20464;-57
2023/04/30 12:27:40;;;;;;;1.70;1.60;;;32.20;28.50;;;;;;5073910;28;20432;-57
2023/04/30 12:30:08;;;;;;;1.47;1.37;;;32.00;28.00;;;;;;5073590;28;20444;-57
2023/04/30 12:32:42;;;;;;;1.87;1.70;;;31.80;28.40;;;;;;5073916;28;20444;-57
2023/04/30 12:35:13;;;;;;;1.50;1.40;;;31.40;29.00;;;;;;5073883;28;20492;-56
2023/04/30 12:37:44;;;;;;;1.33;1.30;;;31.70;29.50;;;;;;5073770;28;20436;-56
2023/04/30 12:40:11;;;;;;;1.97;1.57;;;32.60;28.50;;;;;;5073946;28;20464;-57